createdAt,value
2023-03-31T16:34:08.291Z,18.07
2023-03-31T16:34:17.475Z,18.05
2023-03-31T16:34:28.381Z,18.01
2023-03-31T16:34:37.651Z,17.98
2023-03-31T16:34:50.798Z,17.99
2023-03-31T16:34:57.882Z,17.96
2023-03-31T16:35:17.971Z,17.95
2023-03-31T16:35:28.067Z,17.95
2023-03-31T16:35:38.260Z,17.92
2023-03-31T16:35:48.400Z,17.89
2023-03-31T16:35:58.593Z,17.91
2023-03-31T16:36:08.617Z,17.91
2023-03-31T16:36:18.775Z,17.94
2023-03-31T16:36:28.754Z,17.95
2023-03-31T16:36:39.185Z,17.96
2023-03-31T16:36:49.282Z,17.98
2023-03-31T16:36:59.805Z,17.98
2023-03-31T16:37:09.286Z,18.02
2023-03-31T16:37:19.395Z,18.02
2023-03-31T16:37:29.713Z,18.04
2023-03-31T16:37:39.838Z,18.05
2023-03-31T16:37:49.915Z,18.07
2023-03-31T16:38:00.016Z,18.07
2023-03-31T16:38:10.975Z,18.07
2023-03-31T16:38:20.259Z,18.05
2023-03-31T16:38:30.347Z,18.05
2023-03-31T16:38:40.422Z,18.04
2023-03-31T16:38:50.548Z,18.05
2023-03-31T16:39:02.537Z,18.05
2023-03-31T16:39:20.954Z,18.05
2023-03-31T16:39:31.107Z,18.04
2023-03-31T16:39:41.220Z,17.98
2023-03-31T16:39:51.226Z,17.94
2023-03-31T16:40:01.421Z,17.91
2023-03-31T16:40:11.500Z,17.84
2023-03-31T16:40:21.693Z,17.79
2023-03-31T16:40:31.699Z,17.73
2023-03-31T16:40:41.989Z,17.70
2023-03-31T16:40:52.055Z,17.65
2023-03-31T16:41:03.065Z,17.58
2023-03-31T16:41:12.166Z,17.53
2023-03-31T16:41:22.366Z,17.45
2023-03-31T16:41:32.513Z,17.42
2023-03-31T16:41:42.534Z,17.38
2023-03-31T16:41:53.056Z,17.33
2023-03-31T16:42:12.873Z,17.28
2023-03-31T16:42:23.007Z,17.27
2023-03-31T16:42:33.032Z,17.24
2023-03-31T16:42:43.150Z,17.21
2023-03-31T16:42:53.263Z,17.18
2023-03-31T16:43:03.498Z,17.14
2023-03-31T16:43:13.541Z,17.12
2023-03-31T16:43:23.772Z,17.07
2023-03-31T16:43:33.773Z,17.06
2023-03-31T16:43:44.053Z,17.03
2023-03-31T16:43:54.122Z,17.02
2023-03-31T16:44:04.295Z,17.00
2023-03-31T16:44:14.355Z,16.98
2023-03-31T16:44:25.259Z,16.95
2023-03-31T16:44:34.632Z,16.91
2023-03-31T16:44:47.508Z,16.88
2023-03-31T16:45:12.969Z,16.85
2023-03-31T16:45:19.806Z,16.81
2023-03-31T16:45:25.828Z,16.77
2023-03-31T16:45:35.998Z,16.78
2023-03-31T16:45:46.247Z,16.77
2023-03-31T16:45:56.290Z,16.75
2023-03-31T16:46:06.294Z,16.72
2023-03-31T16:46:25.699Z,16.66
2023-03-31T16:46:36.872Z,16.63
2023-03-31T16:46:46.833Z,16.60
2023-03-31T16:46:56.929Z,16.57
2023-03-31T16:47:07.050Z,16.55
2023-03-31T16:47:27.647Z,16.54
2023-03-31T16:47:40.990Z,16.51
2023-03-31T16:47:48.781Z,16.50
2023-03-31T16:48:02.211Z,16.52
2023-03-31T16:48:17.061Z,16.52
2023-03-31T16:48:23.779Z,16.52
2023-03-31T16:48:34.273Z,16.55
2023-03-31T16:48:43.886Z,16.55
2023-03-31T16:48:54.216Z,16.54
2023-03-31T16:49:04.282Z,16.57
2023-03-31T16:49:24.428Z,16.55
2023-03-31T16:49:34.728Z,16.55
2023-03-31T16:49:44.763Z,16.57
2023-03-31T16:49:55.052Z,16.55
2023-03-31T16:50:04.905Z,16.55
2023-03-31T16:50:15.118Z,16.54
2023-03-31T16:50:25.123Z,16.54
2023-03-31T16:50:35.279Z,16.55
2023-03-31T16:50:45.286Z,16.55
2023-03-31T16:50:55.514Z,16.55
2023-03-31T16:51:06.387Z,16.55
2023-03-31T16:51:15.731Z,16.55
2023-03-31T16:51:25.979Z,16.55
2023-03-31T16:51:35.993Z,16.57
2023-03-31T16:51:46.216Z,16.59
2023-03-31T16:51:56.205Z,16.62
2023-03-31T16:52:16.497Z,16.63
2023-03-31T16:52:26.712Z,16.65
2023-03-31T16:52:36.777Z,16.66
2023-03-31T16:52:46.944Z,16.66
2023-03-31T16:52:57.173Z,16.67
2023-03-31T16:53:07.062Z,16.70
2023-03-31T16:53:17.323Z,16.70
2023-03-31T16:53:27.548Z,16.75
2023-03-31T16:53:37.740Z,16.77
2023-03-31T16:53:47.749Z,16.78
2023-03-31T16:53:59.268Z,16.82
2023-03-31T16:54:07.948Z,16.87
2023-03-31T16:54:17.954Z,16.90
2023-03-31T16:54:28.094Z,16.95
2023-03-31T16:54:38.315Z,17.00
2023-03-31T16:54:48.446Z,17.05
2023-03-31T16:54:58.498Z,17.09
2023-03-31T16:55:08.553Z,17.14
2023-03-31T16:55:18.822Z,17.17
2023-03-31T16:55:28.974Z,17.21
2023-03-31T16:55:39.083Z,17.24
2023-03-31T16:55:49.296Z,17.25
2023-03-31T16:55:59.285Z,17.25
2023-03-31T16:56:09.555Z,17.27
2023-03-31T16:56:20.191Z,17.27
2023-03-31T16:56:29.606Z,17.27
2023-03-31T16:56:39.688Z,17.28
2023-03-31T16:56:49.821Z,17.30
2023-03-31T16:57:00.134Z,17.30
2023-03-31T16:57:11.048Z,17.33
2023-03-31T16:57:20.353Z,17.35
2023-03-31T16:57:30.511Z,17.32
2023-03-31T16:57:40.475Z,17.33
2023-03-31T16:57:50.722Z,17.32
2023-03-31T16:58:00.818Z,17.32
2023-03-31T16:58:20.893Z,17.30
2023-03-31T16:58:31.102Z,17.32
2023-03-31T16:58:41.108Z,17.32
2023-03-31T16:58:51.350Z,17.32
2023-03-31T16:59:01.608Z,17.32
2023-03-31T16:59:11.564Z,17.30
2023-03-31T16:59:21.881Z,17.32
2023-03-31T16:59:31.914Z,17.32
2023-03-31T16:59:41.997Z,17.33
2023-03-31T16:59:52.140Z,17.32
2023-03-31T17:00:02.441Z,17.35
2023-03-31T17:00:13.281Z,17.35
2023-03-31T17:00:22.927Z,17.35
2023-03-31T17:00:32.719Z,17.32
2023-03-31T17:00:42.723Z,17.27
2023-03-31T17:00:52.865Z,17.25
2023-03-31T17:01:03.525Z,17.25
2023-03-31T17:01:23.215Z,17.22
2023-03-31T17:01:33.568Z,17.20
2023-03-31T17:01:43.520Z,17.18
2023-03-31T17:01:53.521Z,17.17
2023-03-31T17:02:03.653Z,17.15
2023-03-31T17:02:13.965Z,17.14
2023-03-31T17:02:24.209Z,17.10
2023-03-31T17:02:34.163Z,17.09
2023-03-31T17:02:45.186Z,17.10
2023-03-31T17:02:54.665Z,17.07
2023-03-31T17:03:04.651Z,17.07
2023-03-31T17:03:14.756Z,17.07
2023-03-31T17:03:24.916Z,17.06
2023-03-31T17:03:34.908Z,17.03
2023-03-31T17:03:55.079Z,16.98
2023-03-31T17:04:05.097Z,16.96
2023-03-31T17:04:15.179Z,16.92
2023-03-31T17:04:25.347Z,16.92
2023-03-31T17:04:35.570Z,16.91
2023-03-31T17:04:45.699Z,16.90
2023-03-31T17:04:59.675Z,16.88
2023-03-31T17:05:13.795Z,16.85
2023-03-31T17:05:20.159Z,16.85
2023-03-31T17:05:30.511Z,16.84
2023-03-31T17:05:40.528Z,16.82
2023-03-31T17:05:50.639Z,16.80
2023-03-31T17:06:00.684Z,16.78
2023-03-31T17:06:21.122Z,16.66
2023-03-31T17:06:31.206Z,16.63
2023-03-31T17:06:42.465Z,16.59
2023-03-31T17:06:51.449Z,16.52
2023-03-31T17:07:01.604Z,16.48
2023-03-31T17:07:11.756Z,16.44
2023-03-31T17:07:21.838Z,16.41
2023-03-31T17:07:31.998Z,16.37
2023-03-31T17:07:53.105Z,16.32
2023-03-31T17:08:02.439Z,16.29
2023-03-31T17:08:12.451Z,16.25
2023-03-31T17:08:22.449Z,16.23
2023-03-31T17:08:32.461Z,16.23
2023-03-31T17:08:42.652Z,16.26
2023-03-31T17:09:02.880Z,16.27
2023-03-31T17:09:13.029Z,16.27
2023-03-31T17:09:23.198Z,16.26
2023-03-31T17:09:33.221Z,16.26
2023-03-31T17:09:43.652Z,16.27
2023-03-31T17:09:53.667Z,16.27
2023-03-31T17:10:03.659Z,16.26
2023-03-31T17:10:13.787Z,16.27
2023-03-31T17:10:24.124Z,16.26
2023-03-31T17:10:34.431Z,16.23
2023-03-31T17:10:44.272Z,16.23
2023-03-31T17:10:54.354Z,16.18
2023-03-31T17:11:04.460Z,16.17
2023-03-31T17:11:14.862Z,16.14
2023-03-31T17:11:24.644Z,16.14
2023-03-31T17:11:35.086Z,16.11
2023-03-31T17:11:44.968Z,16.11
2023-03-31T17:11:55.122Z,16.10
2023-03-31T17:12:05.276Z,16.08
2023-03-31T17:12:15.424Z,16.07
2023-03-31T17:12:25.486Z,16.06
2023-03-31T17:12:35.708Z,16.04
2023-03-31T17:12:45.818Z,16.04
2023-03-31T17:12:55.905Z,16.03
2023-03-31T17:13:05.993Z,16.01
2023-03-31T17:13:16.052Z,16.03
2023-03-31T17:13:26.205Z,15.98
2023-03-31T17:13:37.122Z,15.99
2023-03-31T17:13:46.857Z,15.98
2023-03-31T17:13:56.668Z,15.96
2023-03-31T17:14:07.096Z,15.96
2023-03-31T17:14:17.117Z,15.98
2023-03-31T17:14:27.087Z,15.98
2023-03-31T17:14:38.004Z,15.96
2023-03-31T17:14:47.459Z,15.96
2023-03-31T17:14:57.434Z,15.98
2023-03-31T17:15:07.741Z,15.98
2023-03-31T17:15:18.499Z,15.98
2023-03-31T17:15:27.839Z,15.99
2023-03-31T17:15:38.198Z,16.04
2023-03-31T17:15:48.111Z,16.06
2023-03-31T17:16:13.382Z,16.08
2023-03-31T17:16:29.723Z,16.06
2023-03-31T17:16:48.029Z,16.08
2023-03-31T17:16:54.323Z,16.11
2023-03-31T17:17:02.907Z,16.14
2023-03-31T17:17:13.486Z,16.17
2023-03-31T17:17:23.297Z,16.16
2023-03-31T17:17:33.587Z,16.17
2023-03-31T17:17:43.448Z,16.18
2023-03-31T17:18:04.007Z,16.16
2023-03-31T17:18:13.865Z,16.16
2023-03-31T17:18:23.994Z,16.17
2023-03-31T17:18:34.335Z,16.16
2023-03-31T17:18:44.338Z,16.16
2023-03-31T17:18:54.302Z,16.17
2023-03-31T17:19:04.453Z,16.18
2023-03-31T17:19:14.598Z,16.18
2023-03-31T17:19:24.643Z,16.17
2023-03-31T17:19:34.797Z,16.18
2023-03-31T17:19:45.028Z,16.18
2023-03-31T17:19:55.133Z,16.17
2023-03-31T17:20:05.300Z,16.16
2023-03-31T17:20:15.445Z,16.17
2023-03-31T17:20:25.457Z,16.17
2023-03-31T17:20:36.083Z,16.22
2023-03-31T17:20:45.678Z,16.22
2023-03-31T17:20:55.906Z,16.18
2023-03-31T17:21:05.897Z,16.18
2023-03-31T17:21:16.135Z,16.17
2023-03-31T17:21:26.116Z,16.16
2023-03-31T17:21:36.326Z,16.14
2023-03-31T17:21:46.671Z,16.13
2023-03-31T17:21:56.704Z,16.13
2023-03-31T17:22:07.533Z,16.11
2023-03-31T17:22:16.799Z,16.11
2023-03-31T17:22:26.966Z,16.13
2023-03-31T17:22:37.092Z,16.13
2023-03-31T17:22:47.182Z,16.13
2023-03-31T17:22:57.447Z,16.13
2023-03-31T17:23:07.515Z,16.14
2023-03-31T17:23:18.264Z,16.14
2023-03-31T17:23:27.862Z,16.14
2023-03-31T17:23:38.039Z,16.16
2023-03-31T17:23:48.361Z,16.16
2023-03-31T17:23:59.272Z,16.17
2023-03-31T17:24:08.350Z,16.17
2023-03-31T17:24:18.783Z,16.17
2023-03-31T17:24:28.585Z,16.18
2023-03-31T17:24:38.563Z,16.22
2023-03-31T17:24:48.737Z,16.25
2023-03-31T17:25:00.942Z,16.26
2023-03-31T17:25:09.138Z,16.25
2023-03-31T17:25:19.128Z,16.25
2023-03-31T17:25:29.289Z,16.23
2023-03-31T17:25:39.353Z,16.25
2023-03-31T17:25:49.520Z,16.25
2023-03-31T17:26:10.294Z,16.26
2023-03-31T17:26:20.055Z,16.27
2023-03-31T17:26:30.004Z,16.27
2023-03-31T17:26:40.185Z,16.29
2023-03-31T17:26:50.281Z,16.29
2023-03-31T17:27:00.378Z,16.30
2023-03-31T17:27:10.667Z,16.30
2023-03-31T17:27:20.591Z,16.30
2023-03-31T17:27:30.747Z,16.32
2023-03-31T17:27:40.853Z,16.33
2023-03-31T17:27:50.828Z,16.33
2023-03-31T17:28:01.233Z,16.33
